createdAt,value
2019-03-24T00:01:00.989Z,51.40
2019-03-24T00:03:30.817Z,55.70
2019-03-24T00:06:00.911Z,53.63
2019-03-24T00:08:30.826Z,50.33
2019-03-24T00:11:01.394Z,52.63
2019-03-24T00:13:31.402Z,58.93
2019-03-24T00:16:01.937Z,62.80
2019-03-24T00:18:31.754Z,50.30
2019-03-24T00:21:01.584Z,58.30
2019-03-24T00:23:31.493Z,46.47
2019-03-24T00:26:01.720Z,49.03
2019-03-24T00:28:31.593Z,54.60
2019-03-24T00:31:01.415Z,50.60
2019-03-24T00:33:31.296Z,50.67
2019-03-24T00:36:01.116Z,54.67
2019-03-24T00:38:31.022Z,50.27
2019-03-24T00:41:00.922Z,50.77
2019-03-24T00:43:30.770Z,52.53
2019-03-24T00:46:00.663Z,49.40
2019-03-24T00:48:30.552Z,54.77
2019-03-24T00:51:00.481Z,48.90
2019-03-24T00:53:30.385Z,49.43
2019-03-24T00:56:00.241Z,48.70
2019-03-24T00:58:30.082Z,47.57
2019-03-24T01:00:59.969Z,49.80
2019-03-24T01:03:29.898Z,49.37
2019-03-24T01:06:01.760Z,45.73
2019-03-24T01:08:32.018Z,48.27
2019-03-24T01:11:01.908Z,44.63
2019-03-24T01:13:32.426Z,47.23
2019-03-24T01:16:02.250Z,46.07
2019-03-24T01:18:32.048Z,42.97
2019-03-24T01:21:01.825Z,37.63
2019-03-24T01:23:31.705Z,41.67
2019-03-24T01:26:01.739Z,45.00
2019-03-24T01:28:31.521Z,48.37
2019-03-24T01:31:01.348Z,38.30
2019-03-24T01:33:31.201Z,45.67
2019-03-24T01:36:00.984Z,63.13
2019-03-24T01:38:30.817Z,37.57
2019-03-24T01:41:01.809Z,39.57
2019-03-24T01:43:31.774Z,39.73
2019-03-24T01:46:01.546Z,41.20
2019-03-24T01:48:31.350Z,45.17
2019-03-24T01:51:01.179Z,48.23
2019-03-24T01:53:30.945Z,44.40
2019-03-24T01:56:00.845Z,48.57
2019-03-24T01:58:30.738Z,42.37
2019-03-24T02:01:00.685Z,48.47
2019-03-24T02:03:30.510Z,39.47
2019-03-24T02:06:00.327Z,50.33
2019-03-24T02:08:30.852Z,43.10
2019-03-24T02:11:00.858Z,45.50
2019-03-24T02:13:30.712Z,39.37
2019-03-24T02:16:08.959Z,47.97
2019-03-24T02:18:32.133Z,53.87
2019-03-24T02:21:01.910Z,39.27
2019-03-24T02:23:31.699Z,45.50
2019-03-24T02:26:01.594Z,50.47
2019-03-24T02:28:31.484Z,52.40
2019-03-24T02:31:01.264Z,41.93
2019-03-24T02:33:32.279Z,46.50
2019-03-24T02:36:02.210Z,45.87
2019-03-24T02:38:32.830Z,47.43
2019-03-24T02:41:02.766Z,52.10
2019-03-24T02:43:32.548Z,40.97
2019-03-24T02:46:02.401Z,38.90
2019-03-24T02:48:32.294Z,48.50
2019-03-24T02:51:02.242Z,41.50
2019-03-24T02:53:32.295Z,48.47
2019-03-24T02:56:02.067Z,44.43
2019-03-24T02:58:31.946Z,53.07
2019-03-24T03:01:01.773Z,45.33
2019-03-24T03:03:31.548Z,39.57
2019-03-24T03:06:02.331Z,35.87
2019-03-24T03:08:32.255Z,51.37
2019-03-24T03:11:02.154Z,46.87
2019-03-24T03:13:31.934Z,48.53
2019-03-24T03:16:01.717Z,59.87
2019-03-24T03:18:31.672Z,51.90
2019-03-24T03:21:01.482Z,48.87
2019-03-24T03:23:31.252Z,51.13
2019-03-24T03:26:01.226Z,46.20
2019-03-24T03:28:30.999Z,50.43
2019-03-24T03:31:01.025Z,46.20
2019-03-24T03:33:31.021Z,47.50
2019-03-24T03:36:00.911Z,44.63
2019-03-24T03:38:30.686Z,54.33
2019-03-24T03:41:00.473Z,51.87
2019-03-24T03:43:30.434Z,51.17
2019-03-24T03:46:00.223Z,50.47
2019-03-24T03:48:30.209Z,47.17
2019-03-24T03:51:00.054Z,49.87
2019-03-24T03:53:29.968Z,43.67
2019-03-24T03:55:59.866Z,44.63
2019-03-24T03:58:29.656Z,42.13
2019-03-24T04:00:59.650Z,47.83
2019-03-24T04:03:29.900Z,41.13
2019-03-24T04:06:00.507Z,42.63
2019-03-24T04:08:30.736Z,40.77
2019-03-24T04:11:00.507Z,41.93
2019-03-24T04:13:30.304Z,49.23
2019-03-24T04:16:00.190Z,41.20
2019-03-24T04:18:30.943Z,44.40
2019-03-24T04:21:00.721Z,42.03
2019-03-24T04:23:30.616Z,49.27
2019-03-24T04:26:00.533Z,46.83
2019-03-24T04:28:30.495Z,43.20
2019-03-24T04:31:00.401Z,46.77
2019-03-24T04:33:30.252Z,43.97
2019-03-24T04:36:00.061Z,52.23
2019-03-24T04:38:29.973Z,47.73
2019-03-24T04:40:59.774Z,42.43
2019-03-24T04:43:29.577Z,45.37
2019-03-24T04:45:59.396Z,38.03
2019-03-24T04:48:29.364Z,34.43
2019-03-24T04:50:59.185Z,37.13
2019-03-24T04:53:29.717Z,40.70
2019-03-24T04:55:59.500Z,39.13
2019-03-24T04:58:29.269Z,40.73
2019-03-24T05:00:59.132Z,40.67
2019-03-24T05:03:28.954Z,40.27
2019-03-24T05:05:59.064Z,45.40
2019-03-24T05:08:29.690Z,42.77
2019-03-24T05:10:59.496Z,39.93
2019-03-24T05:13:29.518Z,40.80
2019-03-24T05:15:59.426Z,50.70
2019-03-24T05:18:29.437Z,48.57
2019-03-24T05:20:59.403Z,44.27
2019-03-24T05:23:29.389Z,45.43
2019-03-24T05:25:59.218Z,49.30
2019-03-24T05:28:29.037Z,40.27
2019-03-24T05:30:59.144Z,47.90
2019-03-24T05:33:28.946Z,42.83
2019-03-24T05:35:58.929Z,37.50
2019-03-24T05:38:28.797Z,43.17
2019-03-24T05:40:58.569Z,46.43
2019-03-24T05:43:28.718Z,42.50
2019-03-24T05:45:58.542Z,47.13
2019-03-24T05:48:28.525Z,47.87
2019-03-24T05:50:58.442Z,39.03
2019-03-24T05:53:28.351Z,38.63
2019-03-24T05:55:58.273Z,38.90
2019-03-24T05:58:28.053Z,43.17
2019-03-24T06:00:58.801Z,44.30
2019-03-24T06:03:28.709Z,50.50
2019-03-24T06:05:58.608Z,45.77
2019-03-24T06:08:28.432Z,44.40
2019-03-24T06:10:58.332Z,42.53
2019-03-24T06:13:28.158Z,48.97
2019-03-24T06:15:58.285Z,40.00
2019-03-24T06:18:28.094Z,40.57
2019-03-24T06:20:57.919Z,38.10
2019-03-24T06:23:28.093Z,42.50
2019-03-24T06:25:57.863Z,46.73
2019-03-24T06:28:27.645Z,37.43
2019-03-24T06:30:57.564Z,42.77
2019-03-24T06:33:28.227Z,49.60
2019-03-24T06:35:57.998Z,33.50
2019-03-24T06:38:27.781Z,43.03
2019-03-24T06:40:57.765Z,37.00
2019-03-24T06:43:27.545Z,47.03
2019-03-24T06:45:57.317Z,38.53
2019-03-24T06:48:27.372Z,40.83
2019-03-24T06:50:57.400Z,38.70
2019-03-24T06:53:27.172Z,44.77
2019-03-24T06:55:56.958Z,40.50
2019-03-24T06:58:26.884Z,35.97
2019-03-24T07:00:56.738Z,35.07
2019-03-24T07:03:26.525Z,35.67
2019-03-24T07:05:56.401Z,38.07
2019-03-24T07:08:26.229Z,44.27
2019-03-24T07:10:56.785Z,34.57
2019-03-24T07:13:26.599Z,38.00
2019-03-24T07:15:56.470Z,38.03
2019-03-24T07:18:26.404Z,34.03
2019-03-24T07:20:56.317Z,38.07
2019-03-24T07:23:26.238Z,37.70
2019-03-24T07:25:56.077Z,36.83
2019-03-24T07:28:25.997Z,37.63
2019-03-24T07:30:55.828Z,38.23
2019-03-24T07:33:25.659Z,35.53
2019-03-24T07:35:55.624Z,34.07
2019-03-24T07:38:25.498Z,36.03
2019-03-24T07:40:55.396Z,31.93
2019-03-24T07:43:26.388Z,37.63
2019-03-24T07:45:56.222Z,34.20
2019-03-24T07:48:27.082Z,36.10
2019-03-24T07:50:56.934Z,35.27
2019-03-24T07:53:26.712Z,33.23
2019-03-24T07:55:56.498Z,36.33
2019-03-24T07:58:26.330Z,31.80
2019-03-24T08:00:56.370Z,36.67
2019-03-24T08:03:26.217Z,31.33
2019-03-24T08:05:56.052Z,28.40
2019-03-24T08:08:25.832Z,30.37
2019-03-24T08:10:55.734Z,29.97
2019-03-24T08:13:25.553Z,32.33
2019-03-24T08:15:55.346Z,33.30
2019-03-24T08:18:29.794Z,30.63
2019-03-24T08:20:56.854Z,38.17
2019-03-24T08:23:26.694Z,28.40
2019-03-24T08:25:56.721Z,28.23
2019-03-24T08:28:26.606Z,29.50
2019-03-24T08:30:56.622Z,25.73
2019-03-24T08:33:26.457Z,34.47
2019-03-24T08:35:56.310Z,30.13
2019-03-24T08:38:26.140Z,30.20
2019-03-24T08:40:55.959Z,28.40
2019-03-24T08:43:25.750Z,31.63
2019-03-24T08:45:55.625Z,28.20
2019-03-24T08:48:25.603Z,37.40
2019-03-24T08:50:55.569Z,34.63
2019-03-24T08:53:25.509Z,30.57
2019-03-24T08:55:55.289Z,37.77
2019-03-24T08:58:25.354Z,33.37
2019-03-24T09:00:55.135Z,34.80
2019-03-24T09:03:24.957Z,32.87
2019-03-24T09:05:55.047Z,33.03
2019-03-24T09:08:24.974Z,36.07
2019-03-24T09:10:54.896Z,28.30
2019-03-24T09:13:24.798Z,34.00
2019-03-24T09:15:54.664Z,37.40
2019-03-24T09:18:25.229Z,34.33
2019-03-24T09:20:56.077Z,39.63
2019-03-24T09:23:26.954Z,34.37
2019-03-24T09:25:56.864Z,36.60
2019-03-24T09:28:26.712Z,31.60
2019-03-24T09:30:56.558Z,32.93
2019-03-24T09:33:26.548Z,33.70
2019-03-24T09:35:56.338Z,35.70
2019-03-24T09:38:26.173Z,30.10
2019-03-24T09:40:56.106Z,35.20
2019-03-24T09:43:25.895Z,37.20
2019-03-24T09:45:56.269Z,34.87
2019-03-24T09:48:26.840Z,37.87
2019-03-24T09:50:57.658Z,30.77
2019-03-24T09:53:27.499Z,32.70
2019-03-24T09:55:57.502Z,28.00
2019-03-24T09:58:27.341Z,31.53
2019-03-24T10:00:57.121Z,34.30
2019-03-24T10:03:26.907Z,27.73
2019-03-24T10:05:57.038Z,31.40
2019-03-24T10:08:26.858Z,36.30
2019-03-24T10:10:56.698Z,33.47
2019-03-24T10:13:26.505Z,32.40
2019-03-24T10:15:56.284Z,35.90
2019-03-24T10:18:26.262Z,29.63
2019-03-24T10:20:56.026Z,31.73
2019-03-24T10:23:25.805Z,31.00
2019-03-24T10:25:55.636Z,27.93
2019-03-24T10:28:25.497Z,34.30
2019-03-24T10:30:55.324Z,29.30
2019-03-24T10:33:25.174Z,31.53
2019-03-24T10:35:55.018Z,30.57
2019-03-24T10:38:24.905Z,27.00
2019-03-24T10:40:54.881Z,30.83
2019-03-24T10:43:24.669Z,30.23
2019-03-24T10:45:54.516Z,33.30
2019-03-24T10:48:33.390Z,32.23
2019-03-24T10:50:56.760Z,29.73
2019-03-24T10:53:26.576Z,34.23
2019-03-24T10:55:56.365Z,30.63
2019-03-24T10:58:26.200Z,30.80
2019-03-24T11:00:56.065Z,33.57
2019-03-24T11:03:26.070Z,33.60
2019-03-24T11:05:57.004Z,33.07
2019-03-24T11:08:26.926Z,32.83
2019-03-24T11:10:56.714Z,29.23
2019-03-24T11:13:27.250Z,26.27
2019-03-24T11:15:59.537Z,35.17
2019-03-24T11:18:28.752Z,29.37
2019-03-24T11:20:58.609Z,25.40
2019-03-24T11:23:28.866Z,31.33
2019-03-24T11:25:58.688Z,33.93
2019-03-24T11:28:28.550Z,34.33
2019-03-24T11:30:58.397Z,30.13
2019-03-24T11:33:29.630Z,27.87
2019-03-24T11:35:59.601Z,31.80
2019-03-24T11:38:31.165Z,34.00
2019-03-24T11:41:01.049Z,31.27
2019-03-24T11:43:30.831Z,38.27
2019-03-24T11:46:00.678Z,29.97
2019-03-24T11:48:30.653Z,33.97
2019-03-24T11:51:00.528Z,33.83
2019-03-24T11:53:30.445Z,28.10
2019-03-24T11:56:00.234Z,31.57
2019-03-24T11:58:31.139Z,37.47
2019-03-24T12:01:01.038Z,30.50
2019-03-24T12:03:31.585Z,35.33
2019-03-24T12:06:01.425Z,36.60
2019-03-24T12:08:31.305Z,32.77
2019-03-24T12:11:01.343Z,30.33
2019-03-24T12:13:31.361Z,33.37
2019-03-24T12:16:01.196Z,32.07
2019-03-24T12:18:31.026Z,33.07
2019-03-24T12:21:00.808Z,37.03
2019-03-24T12:23:30.603Z,30.83
2019-03-24T12:26:00.420Z,35.57
2019-03-24T12:28:30.345Z,34.30
2019-03-24T12:31:00.326Z,34.43
2019-03-24T12:33:30.845Z,29.87
2019-03-24T12:36:00.926Z,34.30
2019-03-24T12:38:30.706Z,35.60
2019-03-24T12:41:00.505Z,30.77
2019-03-24T12:43:30.414Z,28.07
2019-03-24T12:46:00.328Z,28.17
2019-03-24T12:48:30.392Z,34.90
2019-03-24T12:51:00.226Z,41.73
2019-03-24T12:53:30.058Z,35.07
2019-03-24T12:55:59.904Z,30.63
2019-03-24T12:58:29.732Z,35.93
2019-03-24T13:00:59.730Z,35.77
2019-03-24T13:03:30.227Z,33.57
2019-03-24T13:06:00.017Z,34.93
2019-03-24T13:08:29.841Z,27.70
2019-03-24T13:10:59.683Z,31.30
2019-03-24T13:13:30.187Z,27.97
2019-03-24T13:16:00.242Z,27.90
2019-03-24T13:18:30.030Z,32.80
2019-03-24T13:21:00.560Z,32.70
2019-03-24T13:23:31.088Z,31.93
2019-03-24T13:26:00.878Z,31.27
2019-03-24T13:28:30.868Z,34.50
2019-03-24T13:31:00.697Z,31.80
2019-03-24T13:33:30.531Z,37.93
2019-03-24T13:36:01.943Z,45.30
2019-03-24T13:38:32.146Z,30.53
2019-03-24T13:41:02.045Z,30.80
2019-03-24T13:43:32.524Z,32.27
2019-03-24T13:46:02.429Z,33.90
2019-03-24T13:48:32.412Z,33.67
2019-03-24T13:51:02.198Z,40.10
2019-03-24T13:53:32.056Z,32.43
2019-03-24T13:56:02.055Z,33.57
2019-03-24T13:58:31.910Z,35.70
2019-03-24T14:01:01.934Z,31.93
2019-03-24T14:03:32.151Z,35.77
2019-03-24T14:06:02.235Z,33.47
2019-03-24T14:08:32.209Z,34.97
2019-03-24T14:11:02.018Z,33.23
2019-03-24T14:13:32.126Z,32.30
2019-03-24T14:16:01.902Z,33.87
2019-03-24T14:18:31.680Z,30.87
2019-03-24T14:21:01.741Z,29.77
2019-03-24T14:23:31.520Z,36.13
2019-03-24T14:26:01.314Z,31.70
2019-03-24T14:28:31.245Z,34.50
2019-03-24T14:31:02.045Z,37.77
2019-03-24T14:33:32.016Z,33.13
2019-03-24T14:36:01.861Z,34.93
2019-03-24T14:38:31.702Z,31.40
2019-03-24T14:41:01.612Z,37.50
2019-03-24T14:43:33.689Z,34.67
2019-03-24T14:46:02.933Z,40.60
2019-03-24T14:48:32.998Z,34.97
2019-03-24T14:51:02.837Z,35.13
2019-03-24T14:53:32.617Z,35.27
2019-03-24T14:56:02.482Z,36.97
2019-03-24T14:58:32.376Z,35.10
2019-03-24T15:01:02.264Z,36.13
2019-03-24T15:03:33.053Z,34.53
2019-03-24T15:06:02.948Z,31.90
2019-03-24T15:08:33.645Z,41.57
2019-03-24T15:11:03.727Z,34.13
2019-03-24T15:13:33.632Z,37.73
2019-03-24T15:16:03.534Z,34.83
2019-03-24T15:18:33.486Z,30.47
2019-03-24T15:21:05.898Z,30.50
2019-03-24T15:23:34.915Z,37.07
2019-03-24T15:26:05.654Z,36.93
2019-03-24T15:28:35.828Z,37.50
2019-03-24T15:31:05.672Z,39.40
2019-03-24T15:33:35.657Z,33.07
2019-03-24T15:36:05.632Z,39.00
2019-03-24T15:38:36.511Z,33.93
2019-03-24T15:41:06.477Z,38.13
2019-03-24T15:43:36.366Z,33.43
2019-03-24T15:46:06.349Z,38.27
2019-03-24T15:48:36.250Z,42.23
2019-03-24T15:51:16.397Z,38.47
2019-03-24T15:53:37.645Z,36.50
2019-03-24T15:56:07.545Z,37.17
2019-03-24T15:58:37.329Z,33.70
2019-03-24T16:01:07.122Z,35.37
2019-03-24T16:03:37.119Z,41.40
2019-03-24T16:06:06.903Z,37.93
2019-03-24T16:08:36.782Z,45.00
2019-03-24T16:11:06.748Z,44.10
2019-03-24T16:13:36.582Z,40.73
2019-03-24T16:16:06.409Z,37.00
2019-03-24T16:18:36.251Z,38.00
2019-03-24T16:21:06.149Z,42.37
2019-03-24T16:23:36.954Z,49.73
2019-03-24T16:26:06.797Z,53.77
2019-03-24T16:28:36.688Z,50.57
2019-03-24T16:31:06.520Z,43.70
2019-03-24T16:33:36.357Z,53.13
2019-03-24T16:36:06.274Z,40.97
2019-03-24T16:38:36.065Z,45.57
2019-03-24T16:41:05.973Z,45.27
2019-03-24T16:43:36.028Z,46.87
2019-03-24T16:46:05.999Z,43.77
2019-03-24T16:48:37.020Z,46.57
2019-03-24T16:51:07.163Z,48.47
2019-03-24T16:53:37.178Z,60.73
2019-03-24T16:56:07.069Z,59.97
2019-03-24T16:58:36.990Z,51.10
2019-03-24T17:01:06.848Z,56.53
2019-03-24T17:03:36.844Z,53.93
2019-03-24T17:06:06.613Z,48.23
2019-03-24T17:08:36.739Z,48.20
2019-03-24T17:11:06.529Z,53.87
2019-03-24T17:13:36.441Z,61.40
2019-03-24T17:16:06.409Z,63.23
2019-03-24T17:18:36.253Z,58.90
2019-03-24T17:21:06.345Z,54.10
2019-03-24T17:23:37.074Z,48.77
2019-03-24T17:26:06.965Z,49.10
2019-03-24T17:28:37.089Z,60.37
2019-03-24T17:31:06.969Z,52.50
2019-03-24T17:33:36.767Z,53.47
2019-03-24T17:36:06.692Z,52.33
2019-03-24T17:38:37.487Z,51.93
2019-03-24T17:41:07.404Z,55.83
2019-03-24T17:43:37.930Z,59.33
2019-03-24T17:46:07.777Z,54.73
2019-03-24T17:48:38.711Z,57.60
2019-03-24T17:51:08.612Z,69.67
2019-03-24T17:53:38.438Z,53.37
2019-03-24T17:56:08.278Z,50.83
2019-03-24T17:58:38.122Z,60.63
2019-03-24T18:01:07.959Z,56.23
2019-03-24T18:03:37.816Z,53.53
2019-03-24T18:06:07.668Z,64.63
2019-03-24T18:08:37.447Z,46.23
2019-03-24T18:11:07.224Z,54.27
2019-03-24T18:13:37.140Z,57.70
2019-03-24T18:16:07.108Z,53.07
2019-03-24T18:18:36.898Z,45.40
2019-03-24T18:21:06.888Z,48.60
2019-03-24T18:23:36.842Z,48.93
2019-03-24T18:26:06.629Z,48.30
2019-03-24T18:28:36.888Z,49.67
2019-03-24T18:31:06.718Z,50.40
2019-03-24T18:33:36.555Z,47.67
2019-03-24T18:36:06.426Z,47.63
2019-03-24T18:38:36.404Z,47.90
2019-03-24T18:41:06.326Z,49.07
2019-03-24T18:43:36.165Z,49.93
2019-03-24T18:46:06.005Z,54.00
2019-03-24T18:48:35.976Z,47.50
2019-03-24T18:51:05.769Z,42.13
2019-03-24T18:53:35.603Z,47.70
2019-03-24T18:56:06.680Z,35.57
2019-03-24T18:58:36.588Z,42.27
2019-03-24T19:01:06.383Z,32.80
2019-03-24T19:03:36.161Z,48.93
2019-03-24T19:06:06.029Z,35.47
2019-03-24T19:08:35.804Z,44.37
2019-03-24T19:11:06.629Z,37.30
2019-03-24T19:13:36.457Z,39.70
2019-03-24T19:16:06.546Z,46.80
2019-03-24T19:18:36.325Z,47.20
2019-03-24T19:21:06.217Z,37.20
2019-03-24T19:23:36.233Z,52.17
2019-03-24T19:26:06.098Z,46.13
2019-03-24T19:28:35.955Z,49.00
2019-03-24T19:31:06.677Z,42.47
2019-03-24T19:33:36.629Z,41.90
2019-03-24T19:36:06.400Z,47.73
2019-03-24T19:38:36.450Z,49.10
2019-03-24T19:41:06.401Z,52.23
2019-03-24T19:43:36.169Z,48.80
2019-03-24T19:46:06.273Z,43.97
2019-03-24T19:48:36.142Z,43.90
2019-03-24T19:51:07.177Z,48.83
2019-03-24T19:53:37.389Z,41.57
2019-03-24T19:56:07.317Z,34.30
2019-03-24T19:58:37.257Z,39.23
2019-03-24T20:01:07.089Z,35.57
2019-03-24T20:03:36.878Z,42.43
2019-03-24T20:06:06.659Z,48.00
2019-03-24T20:08:36.693Z,45.90
2019-03-24T20:11:06.846Z,35.90
2019-03-24T20:13:36.807Z,52.13
2019-03-24T20:16:06.743Z,39.67
2019-03-24T20:18:37.676Z,36.10
2019-03-24T20:21:07.807Z,46.70
2019-03-24T20:23:38.301Z,38.47
2019-03-24T20:26:08.198Z,40.47
2019-03-24T20:28:38.024Z,42.13
2019-03-24T20:31:07.834Z,45.30
2019-03-24T20:33:37.615Z,41.27
2019-03-24T20:36:07.446Z,46.27
2019-03-24T20:38:37.974Z,37.83
2019-03-24T20:41:07.750Z,45.03
2019-03-24T20:43:37.584Z,40.73
2019-03-24T20:46:07.482Z,40.83
2019-03-24T20:48:37.869Z,43.37
2019-03-24T20:51:07.777Z,42.17
2019-03-24T20:53:37.756Z,44.17
2019-03-24T20:56:07.572Z,41.33
2019-03-24T20:58:37.466Z,37.93
2019-03-24T21:01:07.303Z,41.90
2019-03-24T21:03:37.162Z,40.27
2019-03-24T21:06:06.993Z,36.47
2019-03-24T21:08:37.883Z,35.03
2019-03-24T21:11:07.674Z,36.53
2019-03-24T21:13:37.586Z,43.07
2019-03-24T21:16:07.473Z,42.17
2019-03-24T21:18:37.253Z,39.97
2019-03-24T21:21:07.099Z,46.00
2019-03-24T21:23:37.830Z,46.87
2019-03-24T21:26:07.644Z,40.23
2019-03-24T21:28:37.425Z,33.17
2019-03-24T21:31:07.354Z,42.80
2019-03-24T21:33:37.253Z,47.97
2019-03-24T21:36:07.790Z,46.23
2019-03-24T21:38:37.612Z,40.67
2019-03-24T21:41:07.701Z,42.10
2019-03-24T21:43:37.477Z,41.47
2019-03-24T21:46:07.267Z,42.07
2019-03-24T21:48:37.244Z,35.67
2019-03-24T21:51:07.804Z,36.77
2019-03-24T21:53:40.855Z,40.67
2019-03-24T21:56:10.198Z,39.13
2019-03-24T21:58:40.094Z,40.77
2019-03-24T22:01:10.536Z,40.50
2019-03-24T22:03:40.344Z,39.93
2019-03-24T22:06:10.176Z,45.53
2019-03-24T22:08:40.054Z,35.77
2019-03-24T22:11:09.825Z,35.53
2019-03-24T22:13:39.672Z,40.27
2019-03-24T22:16:09.444Z,32.63
2019-03-24T22:18:39.237Z,41.30
2019-03-24T22:21:10.404Z,36.63
2019-03-24T22:23:51.414Z,35.23
2019-03-24T22:26:11.701Z,33.90
2019-03-24T22:28:41.574Z,52.10
2019-03-24T22:31:11.350Z,43.73
2019-03-24T22:33:41.133Z,39.13
2019-03-24T22:36:10.950Z,36.77
2019-03-24T22:38:40.765Z,52.23
2019-03-24T22:41:11.561Z,40.57
2019-03-24T22:43:41.382Z,37.80
2019-03-24T22:46:11.289Z,42.17
2019-03-24T22:48:41.116Z,43.50
2019-03-24T22:51:12.114Z,34.10
2019-03-24T22:53:41.943Z,37.37
2019-03-24T22:56:12.478Z,41.63
2019-03-24T22:58:42.589Z,36.13
2019-03-24T23:01:13.880Z,41.70
2019-03-24T23:03:43.649Z,41.87
2019-03-24T23:06:13.554Z,35.83
2019-03-24T23:08:43.320Z,50.33
2019-03-24T23:11:13.957Z,66.90
2019-03-24T23:13:43.777Z,66.07
2019-03-24T23:16:13.552Z,49.83
2019-03-24T23:18:44.413Z,42.20
2019-03-24T23:21:14.195Z,41.93
2019-03-24T23:23:44.218Z,33.63
2019-03-24T23:26:14.729Z,41.30
2019-03-24T23:28:44.631Z,40.00
2019-03-24T23:31:15.392Z,46.50
2019-03-24T23:33:45.369Z,43.60
2019-03-24T23:36:15.244Z,36.43
2019-03-24T23:38:45.061Z,36.50
2019-03-24T23:41:15.037Z,42.93
2019-03-24T23:43:44.812Z,41.20
2019-03-24T23:46:14.676Z,34.17
2019-03-24T23:48:44.521Z,32.60
2019-03-24T23:51:14.373Z,42.07
2019-03-24T23:53:44.201Z,34.87
2019-03-24T23:56:14.143Z,36.37
2019-03-24T23:58:43.973Z,40.43
